Time,TemperatureF,DewpointF,PressureIn,WindDirection,WindDirectionDegrees,WindSpeedMPH,WindSpeedGustMPH,Humidity,HourlyPrecipIn,Conditions,Clouds,dailyrainin,SoftwareType,DateUTC
2013-03-08 00:00:00,36.0,28.3,30.17,NNW,338,0.7,4.7,73,0.00,,---,0.00,VWS V14.01,2013-03-08 05:00:00,
2013-03-08 00:01:00,36.1,28.4,30.18,NW,315,0.7,1.0,73,0.00,,---,0.00,VWS V14.01,2013-03-08 05:01:00,
2013-03-08 00:06:00,36.1,29.0,30.17,WNW,292,0.0,0.0,75,0.00,,---,0.00,VWS V14.01,2013-03-08 05:06:00,
2013-03-08 00:11:00,36.3,28.6,30.17,NNW,338,1.8,2.9,73,0.00,,---,0.00,VWS V14.01,2013-03-08 05:11:00,
2013-03-08 00:16:00,36.3,28.6,30.18,North,0,3.0,4.7,73,0.00,,---,0.00,VWS V14.01,2013-03-08 05:16:00,
2013-03-08 00:21:00,36.0,29.0,30.18,West,270,0.0,0.0,75,0.00,,---,0.00,VWS V14.01,2013-03-08 05:21:00,
2013-03-08 00:26:00,36.0,28.6,30.18,WNW,292,0.0,0.0,74,0.00,,---,0.00,VWS V14.01,2013-03-08 05:26:00,
2013-03-08 00:31:00,35.8,28.1,30.18,WNW,292,0.0,0.0,73,0.00,,---,0.00,VWS V14.01,2013-03-08 05:31:00,
2013-03-08 00:36:00,35.6,27.9,30.18,WNW,292,0.0,0.0,73,0.00,,---,0.00,VWS V14.01,2013-03-08 05:36:00,
2013-03-08 00:41:00,35.2,27.4,30.18,NNW,338,0.0,0.0,73,0.00,,---,0.00,VWS V14.01,2013-03-08 05:41:00,
2013-03-08 00:46:00,34.8,27.0,30.17,NNW,338,0.0,0.0,73,0.00,,---,0.00,VWS V14.01,2013-03-08 05:46:00,
2013-03-08 00:51:00,34.5,27.2,30.17,NNW,338,0.0,0.0,74,0.00,,---,0.00,VWS V14.01,2013-03-08 05:51:00,
2013-03-08 00:56:00,34.5,27.2,30.18,NNW,338,1.8,2.9,74,0.00,,---,0.00,VWS V14.01,2013-03-08 05:56:00,
2013-03-08 01:01:00,34.3,27.3,30.18,NNW,338,0.0,0.0,75,0.00,,---,0.00,VWS V14.01,2013-03-08 06:01:00,
2013-03-08 01:06:00,34.2,27.2,30.17,NNW,338,0.0,0.0,75,0.00,,---,0.00,VWS V14.01,2013-03-08 06:06:00,
2013-03-08 01:11:00,33.9,26.2,30.18,NNW,338,0.0,0.0,73,0.00,,---,0.00,VWS V14.01,2013-03-08 06:11:00,
2013-03-08 01:16:00,33.9,26.2,30.18,NW,315,0.0,0.0,73,0.00,,---,0.00,VWS V14.01,2013-03-08 06:16:00,
2013-03-08 01:21:00,33.7,26.0,30.18,NW,315,0.0,0.0,73,0.00,,---,0.00,VWS V14.01,2013-03-08 06:21:00,
2013-03-08 01:26:00,33.5,26.1,30.18,NW,315,0.0,0.0,74,0.00,,---,0.00,VWS V14.01,2013-03-08 06:26:00,
2013-03-08 01:31:00,33.2,26.2,30.18,NW,315,0.0,0.0,75,0.00,,---,0.00,VWS V14.01,2013-03-08 06:31:00,
2013-03-08 01:36:00,33.0,26.0,30.18,NW,315,0.0,0.0,75,0.00,,---,0.00,VWS V14.01,2013-03-08 06:36:00,
2013-03-08 01:41:00,32.8,26.4,30.18,WNW,292,0.0,0.0,77,0.00,,---,0.00,VWS V14.01,2013-03-08 06:41:00,
2013-03-08 01:46:00,32.5,25.8,30.18,WNW,292,0.0,0.0,76,0.00,,---,0.00,VWS V14.01,2013-03-08 06:46:00,
2013-03-08 01:51:00,32.3,26.0,30.18,WNW,292,0.0,0.0,77,0.00,,---,0.00,VWS V14.01,2013-03-08 06:51:00,
2013-03-08 01:56:00,31.9,25.9,30.17,WNW,292,0.0,0.0,78,0.00,,---,0.00,VWS V14.01,2013-03-08 06:56:00,
2013-03-08 02:01:00,31.7,26.3,30.17,WSW,248,1.2,1.8,80,0.00,,---,0.00,VWS V14.01,2013-03-08 07:01:00,
2013-03-08 02:06:00,31.6,25.9,30.17,WSW,248,0.0,0.0,79,0.00,,---,0.00,VWS V14.01,2013-03-08 07:06:00,
2013-03-08 02:11:00,31.4,25.7,30.17,WSW,248,0.0,0.0,79,0.00,,---,0.00,VWS V14.01,2013-03-08 07:11:00,
2013-03-08 02:16:00,31.2,25.9,30.17,WSW,248,0.0,0.0,80,0.00,,---,0.00,VWS V14.01,2013-03-08 07:16:00,
2013-03-08 02:21:00,31.2,25.9,30.16,WSW,248,0.0,0.0,80,0.00,,---,0.00,VWS V14.01,2013-03-08 07:21:00,
2013-03-08 02:26:00,31.2,25.9,30.16,WSW,248,0.0,0.0,80,0.00,,---,0.00,VWS V14.01,2013-03-08 07:26:00,
2013-03-08 02:31:00,30.8,25.5,30.16,WSW,248,0.0,0.0,80,0.00,,---,0.00,VWS V14.01,2013-03-08 07:31:00,
2013-03-08 02:36:00,30.8,25.5,30.16,West,270,0.0,0.0,80,0.00,,---,0.00,VWS V14.01,2013-03-08 07:36:00,
2013-03-08 02:41:00,30.7,25.4,30.16,NW,315,0.0,0.0,80,0.00,,---,0.00,VWS V14.01,2013-03-08 07:41:00,
2013-03-08 02:46:00,30.3,25.0,30.16,WNW,292,0.7,1.0,80,0.00,,---,0.00,VWS V14.01,2013-03-08 07:46:00,
2013-03-08 02:51:00,30.3,25.0,30.16,WNW,292,0.0,0.0,80,0.00,,---,0.00,VWS V14.01,2013-03-08 07:51:00,
2013-03-08 02:56:00,30.1,24.8,30.15,WNW,292,0.0,0.5,80,0.00,,---,0.00,VWS V14.01,2013-03-08 07:56:00,
2013-03-08 03:01:00,30.1,24.8,30.16,NW,315,0.0,0.5,80,0.00,,---,0.00,VWS V14.01,2013-03-08 08:01:00,
2013-03-08 03:06:00,30.3,25.0,30.16,NW,315,0.3,0.5,80,0.00,,---,0.00,VWS V14.01,2013-03-08 08:06:00,
2013-03-08 03:11:00,30.3,25.0,30.16,WNW,292,0.0,0.0,80,0.00,,---,0.00,VWS V14.01,2013-03-08 08:11:00,
2013-03-08 03:16:00,30.3,25.0,30.15,WNW,292,0.0,0.0,80,0.00,,---,0.00,VWS V14.01,2013-03-08 08:16:00,
2013-03-08 03:21:00,30.3,25.3,30.16,WNW,292,0.7,1.0,81,0.00,,---,0.00,VWS V14.01,2013-03-08 08:21:00,
2013-03-08 03:26:00,30.3,25.0,30.15,NNW,338,0.7,1.0,80,0.00,,---,0.00,VWS V14.01,2013-03-08 08:26:00,
2013-03-08 03:31:00,30.3,25.0,30.15,NW,315,0.0,0.0,80,0.00,,---,0.00,VWS V14.01,2013-03-08 08:31:00,
2013-03-08 03:36:00,30.3,25.3,30.15,WNW,292,0.7,1.0,81,0.00,,---,0.00,VWS V14.01,2013-03-08 08:36:00,
2013-03-08 03:42:00,30.3,25.6,30.15,West,270,0.3,1.0,82,0.00,,---,0.00,VWS V14.01,2013-03-08 08:42:00,
2013-03-08 03:47:00,30.3,25.6,30.15,WNW,292,0.7,1.0,82,0.00,,---,0.00,VWS V14.01,2013-03-08 08:47:00,
2013-03-08 03:52:00,30.3,25.9,30.15,WNW,292,0.0,0.0,83,0.00,,---,0.00,VWS V14.01,2013-03-08 08:52:00,
2013-03-08 03:57:00,30.1,25.4,30.16,West,270,0.0,0.0,82,0.00,,---,0.00,VWS V14.01,2013-03-08 08:57:00,
2013-03-08 04:02:00,29.9,24.9,30.16,WNW,292,0.0,0.0,81,0.00,,---,0.00,VWS V14.01,2013-03-08 09:02:00,
2013-03-08 04:07:00,29.9,24.9,30.16,WNW,292,0.0,0.5,81,0.00,,---,0.00,VWS V14.01,2013-03-08 09:07:00,
2013-03-08 04:12:00,29.8,24.8,30.16,WNW,292,0.3,0.5,81,0.00,,---,0.00,VWS V14.01,2013-03-08 09:12:00,
2013-03-08 04:17:00,29.8,24.8,30.16,WNW,292,0.0,0.5,81,0.00,,---,0.00,VWS V14.01,2013-03-08 09:17:00,
2013-03-08 04:22:00,29.6,24.6,30.16,WNW,292,0.3,0.5,81,0.00,,---,0.00,VWS V14.01,2013-03-08 09:22:00,
2013-03-08 04:27:00,29.6,24.9,30.16,WNW,292,0.0,0.0,82,0.00,,---,0.00,VWS V14.01,2013-03-08 09:27:00,
2013-03-08 04:32:00,29.6,25.2,30.16,West,270,0.0,0.5,83,0.00,,---,0.00,VWS V14.01,2013-03-08 09:32:00,
2013-03-08 04:37:00,29.6,24.9,30.17,WNW,292,0.7,1.0,82,0.00,,---,0.00,VWS V14.01,2013-03-08 09:37:00,
2013-03-08 04:42:00,29.4,24.7,30.17,NW,315,0.7,1.0,82,0.00,,---,0.00,VWS V14.01,2013-03-08 09:42:00,
2013-03-08 04:47:00,29.2,24.2,30.17,WNW,292,0.0,0.0,81,0.00,,---,0.00,VWS V14.01,2013-03-08 09:47:00,
2013-03-08 04:52:00,29.2,24.5,30.17,WNW,292,0.7,1.0,82,0.00,,---,0.00,VWS V14.01,2013-03-08 09:52:00,
2013-03-08 04:57:00,29.2,24.5,30.17,WNW,292,0.0,0.5,82,0.00,,---,0.00,VWS V14.01,2013-03-08 09:57:00,
2013-03-08 05:02:00,29.2,24.5,30.17,WNW,292,0.3,0.5,82,0.00,,---,0.00,VWS V14.01,2013-03-08 10:02:00,
2013-03-08 05:07:00,29.2,24.2,30.17,WNW,292,0.0,0.0,81,0.00,,---,0.00,VWS V14.01,2013-03-08 10:07:00,
2013-03-08 05:12:00,29.2,24.2,30.17,WNW,292,0.3,0.5,81,0.00,,---,0.00,VWS V14.01,2013-03-08 10:12:00,
2013-03-08 05:17:00,29.2,24.2,30.18,NW,315,0.0,0.0,81,0.00,,---,0.00,VWS V14.01,2013-03-08 10:17:00,
2013-03-08 05:22:00,29.0,24.0,30.17,WNW,292,0.0,0.0,81,0.00,,---,0.00,VWS V14.01,2013-03-08 10:22:00,
2013-03-08 05:27:00,29.0,24.3,30.18,WNW,292,0.7,1.0,82,0.00,,---,0.00,VWS V14.01,2013-03-08 10:27:00,
2013-03-08 05:32:00,29.0,24.3,30.18,WNW,292,0.7,1.0,82,0.00,,---,0.00,VWS V14.01,2013-03-08 10:32:00,
2013-03-08 05:37:00,29.2,24.8,30.18,WNW,292,0.0,0.5,83,0.00,,---,0.00,VWS V14.01,2013-03-08 10:37:00,
2013-03-08 05:42:00,29.2,24.5,30.18,WNW,292,0.0,0.0,82,0.00,,---,0.00,VWS V14.01,2013-03-08 10:42:00,
2013-03-08 05:47:00,29.2,24.5,30.18,West,270,0.0,0.0,82,0.00,,---,0.00,VWS V14.01,2013-03-08 10:47:00,
2013-03-08 05:52:00,29.2,24.5,30.18,NW,315,0.0,0.0,82,0.00,,---,0.00,VWS V14.01,2013-03-08 10:52:00,
2013-03-08 05:57:00,29.0,24.3,30.18,NW,315,0.0,0.0,82,0.00,,---,0.00,VWS V14.01,2013-03-08 10:57:00,
2013-03-08 06:02:00,29.0,24.3,30.18,NW,315,0.0,0.0,82,0.00,,---,0.00,VWS V14.01,2013-03-08 11:02:00,
2013-03-08 06:07:00,28.9,24.2,30.19,West,270,1.2,1.8,82,0.00,,---,0.00,VWS V14.01,2013-03-08 11:07:00,
2013-03-08 06:12:00,28.9,24.5,30.19,WNW,292,0.0,0.5,83,0.00,,---,0.00,VWS V14.01,2013-03-08 11:12:00,
2013-03-08 06:17:00,28.5,24.1,30.19,WNW,292,0.7,1.0,83,0.00,,---,0.00,VWS V14.01,2013-03-08 11:17:00,
2013-03-08 06:22:00,28.5,23.8,30.19,NW,315,0.0,0.0,82,0.00,,---,0.00,VWS V14.01,2013-03-08 11:22:00,
2013-03-08 06:27:00,28.3,23.6,30.19,West,270,0.7,1.0,82,0.00,,---,0.00,VWS V14.01,2013-03-08 11:27:00,
2013-03-08 06:32:00,28.3,24.0,30.19,WNW,292,0.3,1.0,83,0.00,,---,0.00,VWS V14.01,2013-03-08 11:32:00,
2013-03-08 06:37:00,28.1,23.8,30.19,NW,315,0.0,0.0,83,0.00,,---,0.00,VWS V14.01,2013-03-08 11:37:00,
2013-03-08 06:42:00,28.1,23.8,30.19,WNW,292,0.0,0.0,83,0.00,,---,0.00,VWS V14.01,2013-03-08 11:42:00,
2013-03-08 06:47:00,28.1,23.8,30.20,WNW,292,0.7,1.0,83,0.00,,---,0.00,VWS V14.01,2013-03-08 11:47:00,
2013-03-08 06:52:00,28.1,23.8,30.20,WNW,292,0.0,1.0,83,0.00,,---,0.00,VWS V14.01,2013-03-08 11:52:00,
2013-03-08 06:57:00,28.1,23.8,30.20,WNW,292,0.3,0.5,83,0.00,,---,0.00,VWS V14.01,2013-03-08 11:57:00,
2013-03-08 07:02:00,28.1,23.8,30.20,NW,315,0.0,0.0,83,0.00,,---,0.00,VWS V14.01,2013-03-08 12:02:00,
2013-03-08 07:07:00,28.5,24.4,30.20,NW,315,0.7,1.0,84,0.00,,---,0.00,VWS V14.01,2013-03-08 12:07:00,
2013-03-08 07:12:00,28.9,24.8,30.20,NW,315,0.0,0.0,84,0.00,,---,0.00,VWS V14.01,2013-03-08 12:12:00,
2013-03-08 07:17:00,28.9,24.8,30.20,NNW,338,0.3,0.5,84,0.00,,---,0.00,VWS V14.01,2013-03-08 12:17:00,
2013-03-08 07:22:00,29.6,25.5,30.20,WNW,292,1.5,2.3,84,0.00,,---,0.00,VWS V14.01,2013-03-08 12:22:00,
2013-03-08 07:27:00,30.1,26.3,30.20,WNW,292,1.2,2.9,85,0.00,,---,0.00,VWS V14.01,2013-03-08 12:27:00,
2013-03-08 07:32:00,30.7,26.9,30.20,WNW,292,0.7,1.0,85,0.00,,---,0.00,VWS V14.01,2013-03-08 12:32:00,
2013-03-08 07:37:00,31.9,27.4,30.20,WNW,292,0.7,2.9,83,0.00,,---,0.00,VWS V14.01,2013-03-08 12:37:00,
2013-03-08 07:42:00,32.5,28.3,30.21,NW,315,1.2,1.8,84,0.00,,---,0.00,VWS V14.01,2013-03-08 12:42:00,
2013-03-08 07:47:00,33.4,28.9,30.21,NW,315,0.3,1.0,83,0.00,,---,0.00,VWS V14.01,2013-03-08 12:47:00,
2013-03-08 07:52:00,34.1,29.0,30.21,NNW,338,1.8,3.4,81,0.00,,---,0.00,VWS V14.01,2013-03-08 12:52:00,
2013-03-08 07:57:00,34.8,29.6,30.21,NNW,338,2.1,3.4,81,0.00,,---,0.00,VWS V14.01,2013-03-08 12:57:00,
2013-03-08 08:02:00,35.4,29.7,30.21,North,0,1.5,8.8,79,0.00,,---,0.00,VWS V14.01,2013-03-08 13:02:00,
2013-03-08 08:07:00,36.1,30.0,30.21,North,0,1.5,4.2,78,0.00,,---,0.00,VWS V14.01,2013-03-08 13:07:00,
2013-03-08 08:12:00,36.9,30.8,30.21,North,0,4.1,6.5,78,0.00,,---,0.00,VWS V14.01,2013-03-08 13:12:00,
2013-03-08 08:17:00,37.0,30.6,30.21,SW,225,1.8,2.9,77,0.00,,---,0.00,VWS V14.01,2013-03-08 13:17:00,
2013-03-08 08:22:00,37.8,30.7,30.21,WNW,292,2.6,5.2,75,0.00,,---,0.00,VWS V14.01,2013-03-08 13:22:00,
2013-03-08 08:27:00,38.1,31.0,30.21,West,270,4.8,7.5,75,0.00,,---,0.00,VWS V14.01,2013-03-08 13:27:00,
2013-03-08 08:32:00,38.8,31.3,30.21,NW,315,3.3,8.8,74,0.00,,---,0.00,VWS V14.01,2013-03-08 13:32:00,
2013-03-08 08:37:00,39.6,31.4,30.21,North,0,5.6,11.2,72,0.00,,---,0.00,VWS V14.01,2013-03-08 13:37:00,
2013-03-08 08:42:00,39.9,32.0,30.22,North,0,1.8,2.9,73,0.00,,---,0.00,VWS V14.01,2013-03-08 13:42:00,
2013-03-08 08:47:00,40.6,32.3,30.21,NW,315,9.9,15.6,72,0.00,,---,0.00,VWS V14.01,2013-03-08 13:47:00,
2013-03-08 08:52:00,41.0,32.3,30.22,NW,315,4.5,7.0,71,0.00,,---,0.00,VWS V14.01,2013-03-08 13:52:00,
2013-03-08 08:57:00,41.7,32.7,30.22,NNE,22,3.0,6.5,70,0.00,,---,0.00,VWS V14.01,2013-03-08 13:57:00,
2013-03-08 09:02:00,42.1,32.7,30.21,NNW,338,3.0,4.7,69,0.00,,---,0.00,VWS V14.01,2013-03-08 14:02:00,
2013-03-08 09:07:00,42.4,32.6,30.21,NNW,338,3.0,4.7,68,0.00,,---,0.00,VWS V14.01,2013-03-08 14:07:00,
2013-03-08 09:12:00,43.2,32.6,30.21,NNW,338,2.6,4.2,66,0.00,,---,0.00,VWS V14.01,2013-03-08 14:12:00,
2013-03-08 09:17:00,43.9,33.2,30.21,North,0,3.0,6.5,66,0.00,,---,0.00,VWS V14.01,2013-03-08 14:17:00,
2013-03-08 09:22:00,44.1,32.2,30.21,North,0,6.6,10.4,63,0.00,,---,0.00,VWS V14.01,2013-03-08 14:22:00,
2013-03-08 09:27:00,44.3,32.9,30.21,NNE,22,4.1,6.5,64,0.00,,---,0.00,VWS V14.01,2013-03-08 14:27:00,
2013-03-08 09:32:00,44.5,32.7,30.21,NNW,338,6.3,9.9,63,0.00,,---,0.00,VWS V14.01,2013-03-08 14:32:00,
2013-03-08 09:37:00,45.2,32.9,30.21,North,0,6.6,10.4,62,0.00,,---,0.00,VWS V14.01,2013-03-08 14:37:00,
2013-03-08 09:42:00,45.6,32.9,30.20,North,0,4.1,6.5,61,0.00,,---,0.00,VWS V14.01,2013-03-08 14:42:00,
2013-03-08 09:47:00,46.3,32.7,30.20,NNW,338,6.6,10.4,59,0.00,,---,0.00,VWS V14.01,2013-03-08 14:47:00,
2013-03-08 09:52:00,46.7,32.6,30.21,WNW,292,5.6,10.4,58,0.00,,---,0.00,VWS V14.01,2013-03-08 14:52:00,
2013-03-08 09:57:00,46.7,33.0,30.20,NNE,22,4.1,6.5,59,0.00,,---,0.00,VWS V14.01,2013-03-08 14:57:00,
2013-03-08 10:02:00,46.7,33.0,30.20,NNE,22,4.1,6.5,59,0.00,,---,0.00,VWS V14.01,2013-03-08 15:02:00,
2013-03-08 10:07:00,46.7,33.0,30.20,NNE,22,4.1,6.5,59,0.00,,---,0.00,VWS V14.01,2013-03-08 15:07:00,
2013-03-08 10:12:00,48.1,33.0,30.20,WNW,292,5.9,9.4,56,0.00,,---,0.00,VWS V14.01,2013-03-08 15:12:00,
2013-03-08 10:17:00,48.1,32.1,30.19,WNW,292,5.6,8.8,54,0.00,,---,0.00,VWS V14.01,2013-03-08 15:17:00,
2013-03-08 10:22:00,48.3,32.7,30.19,North,0,4.8,11.2,55,0.00,,---,0.00,VWS V14.01,2013-03-08 15:22:00,
2013-03-08 10:27:00,48.3,32.7,30.20,North,0,4.8,7.5,55,0.00,,---,0.00,VWS V14.01,2013-03-08 15:27:00,
2013-03-08 10:32:00,48.3,32.7,30.19,North,0,4.8,7.5,55,0.00,,---,0.00,VWS V14.01,2013-03-08 15:32:00,
2013-03-08 10:37:00,48.3,32.7,30.19,North,0,4.8,7.5,55,0.00,,---,0.00,VWS V14.01,2013-03-08 15:37:00,
2013-03-08 10:42:00,49.5,31.9,30.19,North,0,7.8,12.2,50,0.00,,---,0.00,VWS V14.01,2013-03-08 15:42:00,
2013-03-08 10:47:00,49.5,31.9,30.19,North,0,7.8,12.2,50,0.00,,---,0.00,VWS V14.01,2013-03-08 15:47:00,
2013-03-08 10:52:00,49.5,31.9,30.18,North,0,7.8,12.2,50,0.00,,---,0.00,VWS V14.01,2013-03-08 15:52:00,
2013-03-08 10:57:00,51.0,31.7,30.19,NNW,338,5.9,9.4,47,0.00,,---,0.00,VWS V14.01,2013-03-08 15:57:00,
2013-03-08 11:02:00,51.2,31.9,30.18,NW,315,3.3,14.0,47,0.00,,---,0.00,VWS V14.01,2013-03-08 16:02:00,
2013-03-08 11:07:00,51.7,32.8,30.18,NNW,338,8.9,14.0,48,0.00,,---,0.00,VWS V14.01,2013-03-08 16:07:00,
2013-03-08 11:12:00,51.3,31.4,30.18,NNE,22,5.6,8.8,46,0.00,,---,0.00,VWS V14.01,2013-03-08 16:12:00,
2013-03-08 11:17:00,51.7,31.8,30.18,NNW,338,10.4,16.4,46,0.00,,---,0.00,VWS V14.01,2013-03-08 16:17:00,
2013-03-08 11:22:00,51.7,31.2,30.18,NNW,338,3.0,8.8,45,0.00,,---,0.00,VWS V14.01,2013-03-08 16:22:00,
2013-03-08 11:27:00,52.1,31.6,30.17,North,0,10.4,16.4,45,0.00,,---,0.00,VWS V14.01,2013-03-08 16:27:00,
2013-03-08 11:32:00,52.1,31.6,30.17,North,0,10.4,16.4,45,0.00,,---,0.00,VWS V14.01,2013-03-08 16:32:00,
2013-03-08 11:37:00,52.1,31.6,30.17,North,0,10.4,16.4,45,0.00,,---,0.00,VWS V14.01,2013-03-08 16:37:00,
2013-03-08 11:42:00,52.8,32.2,30.16,North,0,6.6,16.4,45,0.00,,---,0.00,VWS V14.01,2013-03-08 16:42:00,
2013-03-08 11:47:00,52.8,31.6,30.17,ENE,68,8.9,14.0,44,0.00,,---,0.00,VWS V14.01,2013-03-08 16:47:00,
2013-03-08 11:53:00,52.4,31.3,30.16,NW,315,3.0,4.7,44,0.00,,---,0.00,VWS V14.01,2013-03-08 16:53:00,
2013-03-08 11:58:00,52.4,30.7,30.16,NNW,338,6.6,10.4,43,0.00,,---,0.00,VWS V14.01,2013-03-08 16:58:00,
2013-03-08 12:03:00,52.4,31.3,30.15,NW,315,7.4,11.7,44,0.00,,---,0.00,VWS V14.01,2013-03-08 17:03:00,
2013-03-08 12:08:00,52.6,30.3,30.15,NW,315,11.9,18.7,42,0.00,,---,0.00,VWS V14.01,2013-03-08 17:08:00,
2013-03-08 12:13:00,52.6,30.3,30.15,NW,315,11.9,18.7,42,0.00,,---,0.00,VWS V14.01,2013-03-08 17:13:00,
2013-03-08 12:18:00,52.6,30.3,30.14,NW,315,11.9,18.7,42,0.00,,---,0.00,VWS V14.01,2013-03-08 17:18:00,
2013-03-08 12:23:00,53.3,30.9,30.15,North,0,9.2,14.6,42,0.00,,---,0.00,VWS V14.01,2013-03-08 17:23:00,
2013-03-08 12:28:00,53.5,31.1,30.15,North,0,4.1,19.8,42,0.00,,---,0.00,VWS V14.01,2013-03-08 17:28:00,
2013-03-08 12:33:00,53.7,31.3,30.15,NE,45,7.8,12.2,42,0.00,,---,0.00,VWS V14.01,2013-03-08 17:33:00,
2013-03-08 12:38:00,53.5,30.5,30.14,North,0,5.6,8.8,41,0.00,,---,0.00,VWS V14.01,2013-03-08 17:38:00,
2013-03-08 12:43:00,54.5,31.5,30.14,NNW,338,4.5,11.7,41,0.00,,---,0.00,VWS V14.01,2013-03-08 17:43:00,
2013-03-08 12:48:00,54.8,31.6,30.13,North,0,8.1,12.7,41,0.00,,---,0.00,VWS V14.01,2013-03-08 17:48:00,
2013-03-08 12:53:00,54.5,31.5,30.14,NNW,338,7.8,12.2,41,0.00,,---,0.00,VWS V14.01,2013-03-08 17:53:00,
2013-03-08 12:58:00,54.8,31.7,30.13,NNW,338,9.6,15.1,41,0.00,,---,0.00,VWS V14.01,2013-03-08 17:58:00,
2013-03-08 13:03:00,55.2,32.1,30.13,North,0,4.8,15.1,41,0.00,,---,0.00,VWS V14.01,2013-03-08 18:03:00,
2013-03-08 13:08:00,55.0,30.6,30.13,North,0,5.6,8.8,39,0.00,,---,0.00,VWS V14.01,2013-03-08 18:08:00,
2013-03-08 13:13:00,55.2,31.5,30.13,NNW,338,5.6,17.4,40,0.00,,---,0.00,VWS V14.01,2013-03-08 18:13:00,
2013-03-08 13:18:00,55.2,31.5,30.12,North,0,5.9,9.4,40,0.00,,---,0.00,VWS V14.01,2013-03-08 18:18:00,
2013-03-08 13:23:00,55.6,31.8,30.12,North,0,3.3,5.2,40,0.00,,---,0.00,VWS V14.01,2013-03-08 18:23:00,
2013-03-08 13:28:00,55.7,31.3,30.11,ENE,68,3.0,5.2,39,0.00,,---,0.00,VWS V14.01,2013-03-08 18:28:00,
2013-03-08 13:33:00,55.6,30.5,30.11,NW,315,5.1,8.1,38,0.00,,---,0.00,VWS V14.01,2013-03-08 18:33:00,
2013-03-08 13:38:00,55.9,30.8,30.11,NW,315,4.1,12.2,38,0.00,,---,0.00,VWS V14.01,2013-03-08 18:38:00,
2013-03-08 13:43:00,56.3,31.1,30.11,North,0,6.6,10.4,38,0.00,,---,0.00,VWS V14.01,2013-03-08 18:43:00,
2013-03-08 13:48:00,56.1,31.0,30.11,ENE,68,10.4,16.4,38,0.00,,---,0.00,VWS V14.01,2013-03-08 18:48:00,
2013-03-08 13:53:00,56.3,31.1,30.11,NNW,338,10.4,16.4,38,0.00,,---,0.00,VWS V14.01,2013-03-08 18:53:00,
2013-03-08 13:58:00,55.9,30.8,30.10,North,0,6.3,9.9,38,0.00,,---,0.00,VWS V14.01,2013-03-08 18:58:00,
2013-03-08 14:03:00,56.3,31.1,30.10,NNE,22,5.6,9.9,38,0.00,,---,0.00,VWS V14.01,2013-03-08 19:03:00,
2013-03-08 14:08:00,57.0,31.1,30.10,West,270,8.1,12.7,37,0.00,,---,0.00,VWS V14.01,2013-03-08 19:08:00,
2013-03-08 14:13:00,57.0,31.1,30.09,North,0,1.8,2.9,37,0.00,,---,0.00,VWS V14.01,2013-03-08 19:13:00,
2013-03-08 14:18:00,57.4,32.1,30.10,North,0,12.5,19.8,38,0.00,,---,0.00,VWS V14.01,2013-03-08 19:18:00,
2013-03-08 14:23:00,56.8,29.5,30.09,NW,315,5.6,19.8,35,0.00,,---,0.00,VWS V14.01,2013-03-08 19:23:00,
2013-03-08 14:28:00,57.0,31.1,30.09,NNW,338,3.3,11.2,37,0.00,,---,0.00,VWS V14.01,2013-03-08 19:28:00,
2013-03-08 14:33:00,57.0,31.8,30.09,WNW,292,6.3,9.9,38,0.00,,---,0.00,VWS V14.01,2013-03-08 19:33:00,
2013-03-08 14:38:00,57.0,29.7,30.09,NW,315,3.3,9.4,35,0.00,,---,0.00,VWS V14.01,2013-03-08 19:38:00,
2013-03-08 14:43:00,57.4,31.4,30.09,NNW,338,5.9,9.4,37,0.00,,---,0.00,VWS V14.01,2013-03-08 19:43:00,
2013-03-08 14:48:00,57.7,30.3,30.09,ENE,68,4.8,7.5,35,0.00,,---,0.00,VWS V14.01,2013-03-08 19:48:00,
2013-03-08 14:53:00,57.4,30.0,30.09,North,0,7.4,16.9,35,0.00,,---,0.00,VWS V14.01,2013-03-08 19:53:00,
2013-03-08 14:58:00,57.5,30.1,30.09,SW,225,6.3,11.7,35,0.00,,---,0.00,VWS V14.01,2013-03-08 19:58:00,
2013-03-08 15:03:00,58.1,29.9,30.09,WNW,292,5.9,9.4,34,0.00,,---,0.00,VWS V14.01,2013-03-08 20:03:00,
2013-03-08 15:08:00,58.4,32.3,30.09,NNE,22,3.6,9.4,37,0.00,,---,0.00,VWS V14.01,2013-03-08 20:08:00,
2013-03-08 15:13:00,58.4,31.6,30.09,NW,315,3.6,5.7,36,0.00,,---,0.00,VWS V14.01,2013-03-08 20:13:00,
2013-03-08 15:18:00,58.4,30.9,30.09,NNW,338,4.5,7.0,35,0.00,,---,0.00,VWS V14.01,2013-03-08 20:18:00,
2013-03-08 15:23:00,57.9,29.7,30.09,North,0,5.1,15.6,34,0.00,,---,0.00,VWS V14.01,2013-03-08 20:23:00,
2013-03-08 15:28:00,57.5,29.4,30.10,North,0,5.6,8.8,34,0.00,,---,0.00,VWS V14.01,2013-03-08 20:28:00,
2013-03-08 15:33:00,57.5,30.1,30.10,NNW,338,7.8,12.2,35,0.00,,---,0.00,VWS V14.01,2013-03-08 20:33:00,
2013-03-08 15:38:00,57.9,29.7,30.10,NNW,338,3.6,8.8,34,0.00,,---,0.00,VWS V14.01,2013-03-08 20:38:00,
2013-03-08 15:43:00,57.9,30.5,30.10,NW,315,6.6,10.4,35,0.00,,---,0.00,VWS V14.01,2013-03-08 20:43:00,
2013-03-08 15:48:00,58.3,30.8,30.10,NNW,338,3.3,10.4,35,0.00,,---,0.00,VWS V14.01,2013-03-08 20:48:00,
2013-03-08 15:53:00,58.4,31.6,30.10,North,0,3.6,5.7,36,0.00,,---,0.00,VWS V14.01,2013-03-08 20:53:00,
2013-03-08 15:58:00,58.1,30.6,30.10,NNW,338,5.6,16.4,35,0.00,,---,0.00,VWS V14.01,2013-03-08 20:58:00,
2013-03-08 16:03:00,57.9,29.7,30.10,NW,315,3.6,8.8,34,0.00,,---,0.00,VWS V14.01,2013-03-08 21:03:00,
2013-03-08 16:08:00,58.1,29.1,30.10,North,0,6.3,9.9,33,0.00,,---,0.00,VWS V14.01,2013-03-08 21:08:00,
2013-03-08 16:13:00,57.4,28.5,30.10,NNW,338,4.8,9.9,33,0.00,,---,0.00,VWS V14.01,2013-03-08 21:13:00,
2013-03-08 16:18:00,57.4,28.5,30.11,NNE,22,8.9,14.0,33,0.00,,---,0.00,VWS V14.01,2013-03-08 21:18:00,
2013-03-08 16:23:00,57.0,27.4,30.10,North,0,6.3,14.0,32,0.00,,---,0.00,VWS V14.01,2013-03-08 21:23:00,
2013-03-08 16:28:00,57.0,28.2,30.11,NNE,22,8.9,14.0,33,0.00,,---,0.00,VWS V14.01,2013-03-08 21:28:00,
2013-03-08 16:33:00,57.0,28.9,30.11,North,0,3.6,14.0,34,0.00,,---,0.00,VWS V14.01,2013-03-08 21:33:00,
2013-03-08 16:38:00,57.2,29.1,30.10,NNW,338,3.0,5.7,34,0.00,,---,0.00,VWS V14.01,2013-03-08 21:38:00,
2013-03-08 16:43:00,57.4,29.3,30.11,NNW,338,9.9,15.6,34,0.00,,---,0.00,VWS V14.01,2013-03-08 21:43:00,
2013-03-08 16:48:00,57.2,29.1,30.11,North,0,4.1,15.6,34,0.00,,---,0.00,VWS V14.01,2013-03-08 21:48:00,
2013-03-08 16:53:00,56.8,28.0,30.11,NNW,338,5.6,8.8,33,0.00,,---,0.00,VWS V14.01,2013-03-08 21:53:00,
2013-03-08 16:58:00,56.6,28.6,30.11,NNW,338,4.1,9.9,34,0.00,,---,0.00,VWS V14.01,2013-03-08 21:58:00,
2013-03-08 17:03:00,56.6,29.3,30.11,NNW,338,9.9,15.6,35,0.00,,---,0.00,VWS V14.01,2013-03-08 22:03:00,
2013-03-08 17:08:00,56.5,28.5,30.12,North,0,7.4,15.6,34,0.00,,---,0.00,VWS V14.01,2013-03-08 22:08:00,
2013-03-08 17:13:00,56.3,29.1,30.12,NNW,338,2.6,4.7,35,0.00,,---,0.00,VWS V14.01,2013-03-08 22:13:00,
2013-03-08 17:24:00,31.7,31.7,30.12,North,0,0.0,0.0,100,0.00,,---,0.00,VWS V14.01,2013-03-08 22:24:00,
2013-03-08 17:29:00,55.0,27.9,30.12,NW,315,5.1,19.8,35,0.00,,---,0.00,VWS V14.01,2013-03-08 22:29:00,
2013-03-08 17:34:00,54.5,27.5,30.13,NW,315,3.3,11.7,35,0.00,,---,0.00,VWS V14.01,2013-03-08 22:34:00,
2013-03-08 17:39:00,54.0,28.4,30.13,NNW,338,3.0,9.9,37,0.00,,---,0.00,VWS V14.01,2013-03-08 22:39:00,
2013-03-08 17:44:00,53.7,28.1,30.13,NNW,338,1.5,8.8,37,0.00,,---,0.00,VWS V14.01,2013-03-08 22:44:00,
2013-03-08 17:49:00,53.1,28.2,30.13,WNW,292,3.6,5.7,38,0.00,,---,0.00,VWS V14.01,2013-03-08 22:49:00,
2013-03-08 17:54:00,52.8,28.6,30.13,NNW,338,1.5,4.2,39,0.00,,---,0.00,VWS V14.01,2013-03-08 22:54:00,
2013-03-08 17:59:00,52.4,28.2,30.13,NNW,338,2.6,8.8,39,0.00,,---,0.00,VWS V14.01,2013-03-08 22:59:00,
2013-03-08 18:04:00,52.1,28.0,30.13,NNW,338,4.1,6.5,39,0.00,,---,0.00,VWS V14.01,2013-03-08 23:04:00,
2013-03-08 18:09:00,51.7,28.3,30.13,NNW,338,4.8,8.8,40,0.00,,---,0.00,VWS V14.01,2013-03-08 23:09:00,
2013-03-08 18:14:00,51.2,28.4,30.13,NNW,338,1.8,4.7,41,0.00,,---,0.00,VWS V14.01,2013-03-08 23:14:00,
2013-03-08 18:19:00,50.8,28.1,30.14,NNW,338,1.8,4.2,41,0.00,,---,0.00,VWS V14.01,2013-03-08 23:19:00,
2013-03-08 18:24:00,50.4,27.7,30.14,North,0,0.7,1.8,41,0.00,,---,0.00,VWS V14.01,2013-03-08 23:24:00,
2013-03-08 18:29:00,49.9,27.9,30.14,NNW,338,1.8,6.5,42,0.00,,---,0.00,VWS V14.01,2013-03-08 23:29:00,
2013-03-08 18:34:00,49.5,26.9,30.14,NNE,22,0.7,5.2,41,0.00,,---,0.00,VWS V14.01,2013-03-08 23:34:00,
2013-03-08 18:39:00,49.2,27.2,30.14,North,0,1.5,2.3,42,0.00,,---,0.00,VWS V14.01,2013-03-08 23:39:00,
2013-03-08 18:44:00,48.8,26.9,30.14,NNW,338,0.0,2.3,42,0.00,,---,0.00,VWS V14.01,2013-03-08 23:44:00,
2013-03-08 18:49:00,48.5,27.2,30.14,NNW,338,0.0,0.5,43,0.00,,---,0.00,VWS V14.01,2013-03-08 23:49:00,
2013-03-08 18:54:00,48.1,26.8,30.14,NNW,338,0.0,0.0,43,0.00,,---,0.00,VWS V14.01,2013-03-08 23:54:00,
2013-03-08 18:59:00,47.6,26.4,30.14,NNW,338,0.0,0.0,43,0.00,,---,0.00,VWS V14.01,2013-03-08 23:59:00,
2013-03-08 19:04:00,47.0,26.4,30.14,NNW,338,0.0,0.0,44,0.00,,---,0.00,VWS V14.01,2013-03-09 00:04:00,
2013-03-08 19:10:00,46.5,26.0,30.14,NNW,338,0.0,0.5,44,0.00,,---,0.00,VWS V14.01,2013-03-09 00:10:00,
2013-03-08 19:14:00,45.9,26.0,30.14,NNW,338,0.0,0.0,45,0.00,,---,0.00,VWS V14.01,2013-03-09 00:14:00,
2013-03-08 19:20:00,45.6,26.2,30.14,NNW,338,0.0,0.0,46,0.00,,---,0.00,VWS V14.01,2013-03-09 00:20:00,
2013-03-08 19:25:00,45.2,25.9,30.14,NW,315,0.0,0.0,46,0.00,,---,0.00,VWS V14.01,2013-03-09 00:25:00,
2013-03-08 19:30:00,44.8,26.0,30.15,WNW,292,0.0,0.5,47,0.00,,---,0.00,VWS V14.01,2013-03-09 00:30:00,
2013-03-08 19:35:00,44.3,27.1,30.15,WNW,292,0.0,0.0,50,0.00,,---,0.00,VWS V14.01,2013-03-09 00:35:00,
2013-03-08 19:40:00,43.9,27.1,30.16,WNW,292,0.0,0.0,52,0.00,,---,0.00,VWS V14.01,2013-03-09 00:40:00,
2013-03-08 19:45:00,43.5,26.3,30.16,WNW,292,0.0,0.0,50,0.00,,---,0.00,VWS V14.01,2013-03-09 00:45:00,
2013-03-08 19:50:00,43.2,26.0,30.16,WNW,292,0.0,0.0,50,0.00,,---,0.00,VWS V14.01,2013-03-09 00:50:00,
2013-03-08 19:55:00,43.0,25.8,30.16,WNW,292,0.0,0.0,50,0.00,,---,0.00,VWS V14.01,2013-03-09 00:55:00,
2013-03-08 20:00:00,42.4,26.3,30.16,WNW,292,0.0,0.0,53,0.00,,---,0.00,VWS V14.01,2013-03-09 01:00:00,
2013-03-08 20:05:00,41.9,25.3,30.16,NW,315,0.0,0.0,52,0.00,,---,0.00,VWS V14.01,2013-03-09 01:05:00,
2013-03-08 20:10:00,41.5,25.4,30.16,NW,315,0.0,0.0,53,0.00,,---,0.00,VWS V14.01,2013-03-09 01:10:00,
2013-03-08 20:15:00,41.2,25.6,30.17,NW,315,0.0,0.0,54,0.00,,---,0.00,VWS V14.01,2013-03-09 01:15:00,
2013-03-08 20:20:00,41.0,25.4,30.16,NW,315,0.0,0.0,54,0.00,,---,0.00,VWS V14.01,2013-03-09 01:20:00,
2013-03-08 20:25:00,40.5,25.4,30.17,NW,315,0.0,0.0,55,0.00,,---,0.00,VWS V14.01,2013-03-09 01:25:00,
2013-03-08 20:30:00,40.3,25.2,30.17,NW,315,0.0,0.0,55,0.00,,---,0.00,VWS V14.01,2013-03-09 01:30:00,
2013-03-08 20:35:00,39.9,25.8,30.17,NW,315,0.0,0.0,57,0.00,,---,0.00,VWS V14.01,2013-03-09 01:35:00,
2013-03-08 20:40:00,39.6,25.9,30.17,NW,315,0.0,0.0,58,0.00,,---,0.00,VWS V14.01,2013-03-09 01:40:00,
2013-03-08 20:45:00,39.2,26.0,30.17,NW,315,0.0,0.0,59,0.00,,---,0.00,VWS V14.01,2013-03-09 01:45:00,
2013-03-08 20:50:00,38.8,25.6,30.17,NW,315,0.3,0.5,59,0.00,,---,0.00,VWS V14.01,2013-03-09 01:50:00,
2013-03-08 20:55:00,38.7,26.3,30.17,NW,315,0.3,1.0,61,0.00,,---,0.00,VWS V14.01,2013-03-09 01:55:00,
2013-03-08 21:00:00,38.5,25.7,30.18,WNW,292,0.0,1.0,60,0.00,,---,0.00,VWS V14.01,2013-03-09 02:00:00,
2013-03-08 21:05:00,38.5,26.1,30.17,NW,315,0.0,0.0,61,0.00,,---,0.00,VWS V14.01,2013-03-09 02:05:00,
2013-03-08 21:10:00,38.5,26.6,30.18,NW,315,0.3,1.0,62,0.00,,---,0.00,VWS V14.01,2013-03-09 02:10:00,
2013-03-08 21:15:00,38.7,26.8,30.18,NW,315,0.0,0.0,62,0.00,,---,0.00,VWS V14.01,2013-03-09 02:15:00,
2013-03-08 21:20:00,38.8,26.4,30.18,NNW,338,0.0,0.0,61,0.00,,---,0.00,VWS V14.01,2013-03-09 02:20:00,
2013-03-08 21:25:00,38.8,26.4,30.18,NNW,338,0.0,0.0,61,0.00,,---,0.00,VWS V14.01,2013-03-09 02:25:00,
2013-03-08 21:30:00,39.2,26.8,30.19,WNW,292,0.3,0.5,61,0.00,,---,0.00,VWS V14.01,2013-03-09 02:30:00,
2013-03-08 21:35:00,39.4,26.6,30.18,WNW,292,0.0,0.0,60,0.00,,---,0.00,VWS V14.01,2013-03-09 02:35:00,
2013-03-08 21:40:00,39.2,26.4,30.19,WNW,292,0.0,0.0,60,0.00,,---,0.00,VWS V14.01,2013-03-09 02:40:00,
2013-03-08 21:45:00,39.2,26.4,30.19,WNW,292,0.0,0.0,60,0.00,,---,0.00,VWS V14.01,2013-03-09 02:45:00,
2013-03-08 21:50:00,39.0,26.6,30.19,ENE,68,0.0,0.0,61,0.00,,---,0.00,VWS V14.01,2013-03-09 02:50:00,
2013-03-08 21:55:00,39.0,27.0,30.19,ENE,68,0.0,0.0,62,0.00,,---,0.00,VWS V14.01,2013-03-09 02:55:00,
2013-03-08 22:00:00,38.8,26.8,30.20,NE,45,0.0,0.0,62,0.00,,---,0.00,VWS V14.01,2013-03-09 03:00:00,
2013-03-08 22:05:00,38.5,26.6,30.20,NE,45,0.0,0.0,62,0.00,,---,0.00,VWS V14.01,2013-03-09 03:05:00,
2013-03-08 22:10:00,38.1,26.2,30.20,NE,45,0.0,0.0,62,0.00,,---,0.00,VWS V14.01,2013-03-09 03:10:00,
2013-03-08 22:15:00,37.8,26.3,30.21,NE,45,0.0,0.0,63,0.00,,---,0.00,VWS V14.01,2013-03-09 03:15:00,
2013-03-08 22:20:00,37.4,26.3,30.21,NE,45,0.0,0.0,64,0.00,,---,0.00,VWS V14.01,2013-03-09 03:20:00,
2013-03-08 22:25:00,37.2,26.1,30.22,NNE,22,0.0,0.0,64,0.00,,---,0.00,VWS V14.01,2013-03-09 03:25:00,
2013-03-08 22:30:00,36.9,25.9,30.22,NNW,338,0.0,0.0,64,0.00,,---,0.00,VWS V14.01,2013-03-09 03:30:00,
2013-03-08 22:35:00,36.7,26.8,30.23,NNW,338,0.7,1.0,67,0.00,,---,0.00,VWS V14.01,2013-03-09 03:35:00,
2013-03-08 22:40:00,36.5,26.2,30.23,NE,45,0.0,0.0,66,0.00,,---,0.00,VWS V14.01,2013-03-09 03:40:00,
2013-03-08 22:45:00,36.5,27.0,30.23,NW,315,0.0,0.0,68,0.00,,---,0.00,VWS V14.01,2013-03-09 03:45:00,
2013-03-08 22:50:00,36.7,26.4,30.23,NW,315,0.0,0.0,66,0.00,,---,0.00,VWS V14.01,2013-03-09 03:50:00,
2013-03-08 22:55:00,36.9,27.0,30.23,West,270,0.7,1.0,67,0.00,,---,0.00,VWS V14.01,2013-03-09 03:55:00,
2013-03-08 23:00:00,37.0,26.7,30.24,North,0,0.7,1.0,66,0.00,,---,0.00,VWS V14.01,2013-03-09 04:00:00,
2013-03-08 23:05:00,37.2,26.9,30.24,NNW,338,0.7,1.0,66,0.00,,---,0.00,VWS V14.01,2013-03-09 04:05:00,
2013-03-08 23:10:00,37.4,27.1,30.23,NNW,338,0.0,0.0,66,0.00,,---,0.00,VWS V14.01,2013-03-09 04:10:00,
2013-03-08 23:15:00,37.6,27.3,30.24,NNW,338,0.0,0.0,66,0.00,,---,0.00,VWS V14.01,2013-03-09 04:15:00,
2013-03-08 23:20:00,37.8,27.1,30.23,NNW,338,0.0,0.0,65,0.00,,---,0.00,VWS V14.01,2013-03-09 04:20:00,
2013-03-08 23:25:00,37.9,27.2,30.23,NW,315,0.0,0.0,65,0.00,,---,0.00,VWS V14.01,2013-03-09 04:25:00,
2013-03-08 23:30:00,38.1,27.4,30.23,NW,315,0.0,0.0,65,0.00,,---,0.00,VWS V14.01,2013-03-09 04:30:00,
2013-03-08 23:35:00,38.1,27.4,30.23,WNW,292,0.3,0.5,65,0.00,,---,0.00,VWS V14.01,2013-03-09 04:35:00,
2013-03-08 23:40:00,38.3,27.5,30.23,WNW,292,0.0,0.0,65,0.00,,---,0.00,VWS V14.01,2013-03-09 04:40:00,
2013-03-08 23:45:00,38.1,27.4,30.23,WNW,292,0.0,0.0,65,0.00,,---,0.00,VWS V14.01,2013-03-09 04:45:00,
2013-03-08 23:50:00,38.1,27.4,30.23,ENE,68,0.0,0.0,65,0.00,,---,0.00,VWS V14.01,2013-03-09 04:50:00,
2013-03-08 23:55:00,38.1,27.4,30.23,NNW,338,0.0,0.0,65,0.00,,---,0.00,VWS V14.01,2013-03-09 04:55:00,